createdAt,value
2019-06-20T00:01:33.111Z,1.40
2019-06-20T00:04:03.263Z,1.30
2019-06-20T00:06:32.216Z,1.20
2019-06-20T00:09:01.114Z,1.47
2019-06-20T00:11:31.714Z,1.37
2019-06-20T00:14:00.609Z,1.30
2019-06-20T00:16:29.521Z,1.20
2019-06-20T00:18:58.488Z,1.10
2019-06-20T00:21:27.450Z,1.50
2019-06-20T00:23:56.359Z,1.40
2019-06-20T00:26:25.245Z,1.70
2019-06-20T00:28:54.125Z,1.60
2019-06-20T00:31:24.109Z,1.37
2019-06-20T00:33:53.007Z,1.40
2019-06-20T00:36:21.899Z,1.30
2019-06-20T00:38:50.823Z,1.50
2019-06-20T00:41:19.711Z,1.30
2019-06-20T00:43:48.620Z,1.50
2019-06-20T00:46:18.693Z,1.43
2019-06-20T00:48:47.585Z,1.53
2019-06-20T00:51:16.477Z,1.53
2019-06-20T00:53:45.396Z,1.43
2019-06-20T00:56:14.289Z,1.60
2019-06-20T00:58:43.210Z,1.40
2019-06-20T01:01:12.118Z,1.33
2019-06-20T01:03:41.079Z,1.50
2019-06-20T01:06:09.972Z,1.53
2019-06-20T01:08:38.880Z,1.40
2019-06-20T01:11:07.775Z,1.40
2019-06-20T01:13:36.672Z,1.83
2019-06-20T01:16:05.638Z,1.60
2019-06-20T01:18:34.528Z,1.73
2019-06-20T01:21:03.532Z,1.30
2019-06-20T01:23:32.428Z,1.60
2019-06-20T01:26:01.366Z,1.50
2019-06-20T01:28:30.248Z,1.33
2019-06-20T01:30:59.150Z,1.53
2019-06-20T01:33:28.070Z,1.60
2019-06-20T01:35:56.958Z,1.83
2019-06-20T01:38:25.844Z,1.47
2019-06-20T01:40:54.776Z,1.43
2019-06-20T01:43:23.661Z,1.40
2019-06-20T01:45:52.658Z,1.37
2019-06-20T01:48:21.556Z,1.70
2019-06-20T01:50:50.451Z,1.60
2019-06-20T01:53:19.410Z,1.50
2019-06-20T01:55:49.407Z,1.60
2019-06-20T01:58:18.337Z,1.90
2019-06-20T02:00:48.835Z,2.50
2019-06-20T02:03:19.906Z,2.60
2019-06-20T02:05:48.802Z,2.33
2019-06-20T02:08:17.755Z,2.37
2019-06-20T02:10:46.831Z,2.00
2019-06-20T02:13:15.750Z,1.90
2019-06-20T02:15:44.687Z,1.90
2019-06-20T02:18:13.671Z,1.80
2019-06-20T02:20:47.205Z,2.87
2019-06-20T02:23:16.120Z,2.07
2019-06-20T02:25:45.543Z,2.40
2019-06-20T02:28:15.569Z,2.03
2019-06-20T02:30:44.469Z,2.20
2019-06-20T02:33:13.381Z,2.40
2019-06-20T02:35:42.334Z,2.17
2019-06-20T02:38:11.220Z,2.10
2019-06-20T02:40:40.241Z,2.10
2019-06-20T02:43:09.183Z,2.23
2019-06-20T02:45:38.995Z,1.80
2019-06-20T02:48:08.114Z,2.10
2019-06-20T02:50:37.052Z,2.20
2019-06-20T02:53:06.016Z,2.00
2019-06-20T02:55:34.925Z,1.70
2019-06-20T02:58:03.885Z,2.10
2019-06-20T03:00:34.330Z,2.17
2019-06-20T03:03:03.348Z,2.10
2019-06-20T03:05:32.238Z,2.33
2019-06-20T03:08:01.200Z,2.00
2019-06-20T03:10:30.217Z,1.70
2019-06-20T03:12:59.100Z,2.30
2019-06-20T03:15:27.995Z,2.13
2019-06-20T03:17:56.916Z,1.83
2019-06-20T03:20:25.805Z,1.70
2019-06-20T03:22:55.817Z,1.87
2019-06-20T03:25:24.808Z,2.00
2019-06-20T03:27:53.690Z,1.90
2019-06-20T03:30:22.649Z,2.10
2019-06-20T03:32:51.568Z,2.50
2019-06-20T03:35:20.464Z,2.30
2019-06-20T03:37:50.398Z,2.17
2019-06-20T03:40:19.423Z,2.10
2019-06-20T03:42:48.380Z,2.07
2019-06-20T03:45:17.409Z,1.90
2019-06-20T03:47:46.299Z,2.40
2019-06-20T03:50:15.275Z,2.43
2019-06-20T03:52:45.135Z,1.60
2019-06-20T03:55:14.224Z,1.87
2019-06-20T03:57:43.185Z,1.70
2019-06-20T04:00:12.309Z,1.83
2019-06-20T04:02:41.210Z,2.20
2019-06-20T04:05:10.164Z,1.80
2019-06-20T04:07:39.226Z,2.07
2019-06-20T04:10:08.119Z,1.47
2019-06-20T04:12:37.009Z,1.77
2019-06-20T04:15:18.506Z,1.77
2019-06-20T04:17:37.252Z,1.60
2019-06-20T04:20:06.323Z,1.60
2019-06-20T04:22:35.241Z,1.80
2019-06-20T04:25:04.609Z,1.70
2019-06-20T04:27:33.500Z,2.30
2019-06-20T04:30:02.463Z,1.97
2019-06-20T04:32:31.415Z,1.60
2019-06-20T04:35:00.299Z,1.80
2019-06-20T04:37:29.230Z,1.87
2019-06-20T04:39:58.110Z,1.67
2019-06-20T04:42:27.018Z,1.93
2019-06-20T04:44:57.588Z,1.90
2019-06-20T04:47:26.473Z,1.20
2019-06-20T04:49:55.369Z,1.57
2019-06-20T04:52:24.336Z,1.43
2019-06-20T04:54:54.196Z,1.70
2019-06-20T04:57:23.136Z,1.47
2019-06-20T04:59:53.652Z,1.80
2019-06-20T05:02:24.397Z,1.53
2019-06-20T05:04:53.493Z,1.87
2019-06-20T05:07:24.004Z,1.87
2019-06-20T05:09:52.894Z,1.67
2019-06-20T05:12:21.788Z,1.50
2019-06-20T05:14:50.863Z,1.47
2019-06-20T05:17:19.946Z,1.30
2019-06-20T05:19:48.849Z,1.30
2019-06-20T05:22:17.806Z,1.47
2019-06-20T05:24:46.694Z,1.53
2019-06-20T05:27:15.669Z,1.60
2019-06-20T05:29:44.581Z,1.40
2019-06-20T05:32:13.475Z,1.60
2019-06-20T05:34:42.416Z,1.50
2019-06-20T05:37:11.295Z,1.47
2019-06-20T05:39:40.255Z,1.17
2019-06-20T05:42:09.184Z,1.50
2019-06-20T05:44:38.077Z,1.50
2019-06-20T05:47:12.559Z,1.30
2019-06-20T05:49:37.602Z,1.40
2019-06-20T05:52:06.544Z,1.83
2019-06-20T05:54:35.561Z,1.40
2019-06-20T05:57:05.681Z,1.57
2019-06-20T05:59:36.259Z,1.60
2019-06-20T06:02:05.215Z,1.47
2019-06-20T06:04:34.150Z,1.30
2019-06-20T06:07:03.124Z,1.50
2019-06-20T06:09:33.089Z,1.57
2019-06-20T06:12:01.990Z,1.43
2019-06-20T06:14:31.616Z,1.50
2019-06-20T06:17:00.527Z,1.43
2019-06-20T06:19:29.436Z,1.60
2019-06-20T06:21:58.348Z,1.67
2019-06-20T06:24:27.248Z,1.80
2019-06-20T06:26:59.697Z,1.43
2019-06-20T06:29:26.783Z,1.50
2019-06-20T06:31:55.677Z,1.60
2019-06-20T06:34:24.602Z,1.30
2019-06-20T06:36:53.560Z,1.57
2019-06-20T06:39:22.449Z,1.67
2019-06-20T06:41:51.385Z,1.73
2019-06-20T06:44:20.346Z,1.87
2019-06-20T06:46:55.405Z,1.93
2019-06-20T06:49:20.919Z,1.60
2019-06-20T06:51:49.891Z,1.30
2019-06-20T06:54:18.781Z,1.70
2019-06-20T06:56:47.705Z,1.80
2019-06-20T06:59:16.598Z,1.63
2019-06-20T07:01:45.610Z,1.70
2019-06-20T07:04:14.533Z,1.63
2019-06-20T07:06:43.479Z,1.60
2019-06-20T07:09:12.427Z,1.53
2019-06-20T07:11:41.456Z,1.57
2019-06-20T07:14:10.349Z,1.70
2019-06-20T07:16:39.311Z,1.53
2019-06-20T07:19:08.244Z,1.70
2019-06-20T07:21:37.130Z,1.80
2019-06-20T07:24:07.192Z,2.13
2019-06-20T07:26:36.101Z,1.73
2019-06-20T07:29:05.043Z,1.43
2019-06-20T07:31:33.943Z,1.90
2019-06-20T07:34:02.852Z,1.90
2019-06-20T07:36:31.727Z,1.90
2019-06-20T07:39:00.637Z,2.00
2019-06-20T07:41:31.195Z,2.10
2019-06-20T07:44:00.118Z,1.90
2019-06-20T07:46:29.131Z,2.43
2019-06-20T07:48:58.094Z,1.77
2019-06-20T07:51:27.031Z,1.93
2019-06-20T07:53:55.927Z,2.50
2019-06-20T07:56:24.847Z,2.13
2019-06-20T07:58:53.735Z,1.80
2019-06-20T08:01:22.633Z,2.10
2019-06-20T08:03:51.562Z,2.30
2019-06-20T08:06:20.516Z,2.03
2019-06-20T08:08:49.417Z,1.70
2019-06-20T08:11:18.432Z,2.07
2019-06-20T08:13:47.376Z,1.70
2019-06-20T08:16:16.265Z,1.97
2019-06-20T08:18:45.200Z,2.23
2019-06-20T08:21:14.218Z,1.97
2019-06-20T08:23:43.182Z,2.03
2019-06-20T08:26:12.427Z,2.33
2019-06-20T08:28:41.375Z,2.37
2019-06-20T08:31:10.400Z,2.20
2019-06-20T08:33:39.497Z,2.70
2019-06-20T08:36:08.395Z,2.47
2019-06-20T08:38:37.615Z,2.50
2019-06-20T08:41:06.900Z,2.80
2019-06-20T08:43:35.788Z,2.90
2019-06-20T08:46:10.070Z,2.80
2019-06-20T08:48:36.369Z,2.70
2019-06-20T08:51:06.482Z,2.63
2019-06-20T08:53:35.480Z,2.50
2019-06-20T08:56:05.503Z,2.27
2019-06-20T08:58:34.496Z,2.23
2019-06-20T09:03:34.434Z,2.20
2019-06-20T09:08:32.368Z,2.10
2019-06-20T09:11:01.763Z,2.23
2019-06-20T09:13:30.928Z,2.10
2019-06-20T09:16:00.907Z,2.63
2019-06-20T09:18:29.898Z,2.43
2019-06-20T09:21:00.208Z,2.50
2019-06-20T09:23:29.367Z,1.80
2019-06-20T09:25:59.566Z,2.50
2019-06-20T09:28:28.685Z,2.17
2019-06-20T09:30:57.640Z,2.40
2019-06-20T09:33:26.646Z,2.20
2019-06-20T09:35:55.613Z,2.37
2019-06-20T09:38:24.643Z,2.37
2019-06-20T09:40:54.758Z,2.00
2019-06-20T09:43:27.565Z,2.07
2019-06-20T09:45:54.534Z,2.27
2019-06-20T09:48:23.585Z,1.90
2019-06-20T09:50:52.984Z,2.17
2019-06-20T09:53:23.316Z,2.80
2019-06-20T09:55:53.628Z,2.17
2019-06-20T09:58:22.660Z,2.10
2019-06-20T10:00:52.785Z,2.50
2019-06-20T10:03:21.909Z,2.13
2019-06-20T10:05:50.818Z,2.50
2019-06-20T10:08:20.138Z,2.43
2019-06-20T10:10:50.640Z,2.40
2019-06-20T10:13:19.652Z,2.17
2019-06-20T10:15:49.443Z,2.50
2019-06-20T10:18:18.375Z,3.00
2019-06-20T10:20:47.334Z,2.70
2019-06-20T10:23:16.410Z,2.37
2019-06-20T10:25:46.669Z,2.80
2019-06-20T10:28:15.878Z,2.57
2019-06-20T10:30:44.871Z,2.40
2019-06-20T10:33:14.840Z,2.50
2019-06-20T10:35:45.128Z,2.13
2019-06-20T10:38:14.468Z,2.70
2019-06-20T10:40:44.714Z,2.80
2019-06-20T10:43:14.129Z,2.63
2019-06-20T10:45:44.250Z,2.07
2019-06-20T10:48:13.834Z,1.57
2019-06-20T10:50:44.029Z,1.90
2019-06-20T10:53:13.326Z,1.60
2019-06-20T10:55:43.362Z,1.47
2019-06-20T10:58:12.969Z,1.77
2019-06-20T11:00:43.383Z,1.53
2019-06-20T11:03:12.586Z,2.90
2019-06-20T11:05:42.293Z,2.53
2019-06-20T11:08:13.412Z,2.53
2019-06-20T11:10:43.607Z,1.90
2019-06-20T11:13:13.945Z,2.00
2019-06-20T11:15:44.013Z,1.90
2019-06-20T11:18:13.100Z,2.30
2019-06-20T11:20:42.757Z,2.47
2019-06-20T11:23:11.857Z,2.50
2019-06-20T11:25:41.972Z,2.30
2019-06-20T11:28:10.943Z,2.10
2019-06-20T11:30:52.660Z,2.20
2019-06-20T11:33:10.591Z,2.30
2019-06-20T11:35:39.537Z,3.07
2019-06-20T11:38:08.432Z,4.37
2019-06-20T11:40:38.277Z,2.13
2019-06-20T11:43:08.016Z,1.77
2019-06-20T11:45:37.640Z,1.80
2019-06-20T11:48:08.058Z,1.70
2019-06-20T11:50:37.945Z,2.57
2019-06-20T11:53:06.974Z,2.10
2019-06-20T11:55:35.947Z,2.03
2019-06-20T11:58:04.914Z,2.10
2019-06-20T12:00:33.876Z,1.83
2019-06-20T12:03:02.801Z,1.80
2019-06-20T12:05:31.715Z,1.67
2019-06-20T12:08:00.670Z,1.70
2019-06-20T12:10:29.616Z,1.67
2019-06-20T12:12:58.536Z,1.60
2019-06-20T12:15:27.517Z,1.70
2019-06-20T12:17:56.442Z,1.87
2019-06-20T12:20:25.333Z,2.20
2019-06-20T12:22:54.221Z,2.00
2019-06-20T12:25:23.316Z,1.67
2019-06-20T12:27:52.213Z,2.20
2019-06-20T12:30:21.390Z,2.40
2019-06-20T12:32:50.384Z,2.00
2019-06-20T12:35:19.343Z,2.10
2019-06-20T12:37:49.766Z,2.03
2019-06-20T12:40:20.571Z,2.13
2019-06-20T12:42:49.512Z,2.20
2019-06-20T12:45:18.600Z,1.97
2019-06-20T12:47:47.557Z,2.13
2019-06-20T12:50:16.763Z,1.80
2019-06-20T12:52:47.156Z,1.90
2019-06-20T12:55:16.435Z,1.97
2019-06-20T12:57:46.331Z,1.80
2019-06-20T13:00:17.207Z,1.80
2019-06-20T13:02:47.456Z,1.97
2019-06-20T13:05:16.810Z,1.57
2019-06-20T13:07:46.516Z,1.70
2019-06-20T13:10:17.045Z,2.10
2019-06-20T13:12:46.375Z,1.67
2019-06-20T13:15:16.881Z,1.90
2019-06-20T13:17:46.996Z,2.03
2019-06-20T13:20:16.333Z,2.37
2019-06-20T13:22:46.465Z,2.20
2019-06-20T13:25:15.562Z,2.00
2019-06-20T13:27:45.673Z,1.97
2019-06-20T13:30:14.949Z,1.90
2019-06-20T13:32:45.313Z,2.10
2019-06-20T13:35:14.825Z,1.80
2019-06-20T13:37:45.770Z,1.97
2019-06-20T13:40:15.008Z,2.00
2019-06-20T13:42:44.664Z,2.27
2019-06-20T13:45:18.508Z,1.90
2019-06-20T13:47:47.810Z,2.07
2019-06-20T13:50:17.122Z,2.03
2019-06-20T13:52:47.207Z,2.20
2019-06-20T13:55:17.013Z,2.30
2019-06-20T13:57:47.128Z,2.20
2019-06-20T14:00:17.234Z,2.60
2019-06-20T14:02:47.061Z,1.80
2019-06-20T14:05:17.165Z,2.00
2019-06-20T14:07:48.414Z,1.67
2019-06-20T14:10:16.873Z,2.20
2019-06-20T14:12:46.839Z,1.80
2019-06-20T14:15:16.338Z,1.70
2019-06-20T14:17:47.165Z,1.77
2019-06-20T14:20:16.508Z,2.13
2019-06-20T14:22:45.425Z,1.70
2019-06-20T14:25:14.391Z,2.20
2019-06-20T14:27:43.986Z,1.80
2019-06-20T14:30:13.872Z,1.60
2019-06-20T14:32:43.231Z,1.63
2019-06-20T14:35:14.078Z,1.70
2019-06-20T14:37:45.287Z,1.90
2019-06-20T14:40:14.860Z,2.03
2019-06-20T14:42:44.543Z,1.90
2019-06-20T14:45:14.496Z,1.77
2019-06-20T14:47:43.598Z,1.90
2019-06-20T14:50:12.649Z,2.00
2019-06-20T14:52:42.876Z,1.97
2019-06-20T14:55:13.600Z,2.20
2019-06-20T14:57:44.652Z,1.80
2019-06-20T15:00:14.800Z,1.63
2019-06-20T15:02:45.398Z,1.50
2019-06-20T15:05:14.854Z,1.70
2019-06-20T15:07:45.124Z,1.73
2019-06-20T15:10:15.277Z,1.50
2019-06-20T15:12:45.702Z,1.43
2019-06-20T15:15:15.879Z,1.80
2019-06-20T15:17:46.470Z,1.70
2019-06-20T15:20:15.521Z,1.60
2019-06-20T15:22:45.585Z,1.70
2019-06-20T15:25:15.998Z,1.20
2019-06-20T15:27:47.243Z,2.37
2019-06-20T15:30:18.357Z,1.80
2019-06-20T15:32:59.184Z,1.63
2019-06-20T15:35:19.052Z,1.00
2019-06-20T15:37:49.787Z,0.67
2019-06-20T15:40:19.823Z,0.70
2019-06-20T15:42:51.104Z,1.10
2019-06-20T15:45:20.437Z,0.80
2019-06-20T15:47:49.430Z,0.70
2019-06-20T15:50:18.406Z,0.80
2019-06-20T15:52:47.302Z,0.70
2019-06-20T15:55:19.736Z,0.80
2019-06-20T15:57:49.056Z,1.30
2019-06-20T16:00:19.714Z,1.00
2019-06-20T16:02:49.075Z,0.90
2019-06-20T16:05:18.932Z,0.83
2019-06-20T16:07:48.314Z,1.30
2019-06-20T16:10:18.118Z,0.97
2019-06-20T16:12:47.433Z,1.00
2019-06-20T16:15:22.833Z,0.90
2019-06-20T16:17:52.481Z,1.00
2019-06-20T16:20:22.633Z,0.90
2019-06-20T16:22:52.000Z,1.00
2019-06-20T16:25:21.631Z,1.03
2019-06-20T16:27:51.363Z,1.20
2019-06-20T16:30:21.475Z,0.90
2019-06-20T16:32:50.863Z,1.13
2019-06-20T16:35:20.917Z,0.90
2019-06-20T16:37:50.249Z,1.10
2019-06-20T16:40:28.719Z,1.00
2019-06-20T16:42:58.036Z,1.00
2019-06-20T16:45:27.593Z,0.90
2019-06-20T16:47:56.997Z,1.10
2019-06-20T16:50:26.356Z,1.00
2019-06-20T16:52:55.713Z,1.30
2019-06-20T16:55:25.044Z,1.10
2019-06-20T16:57:54.422Z,1.47
2019-06-20T17:00:23.854Z,1.20
2019-06-20T17:02:53.247Z,1.10
2019-06-20T17:05:22.674Z,1.23
2019-06-20T17:07:52.277Z,1.30
2019-06-20T17:10:22.384Z,1.10
2019-06-20T17:12:52.891Z,1.20
2019-06-20T17:15:23.151Z,0.93
2019-06-20T17:17:52.639Z,0.97
2019-06-20T17:20:22.082Z,1.20
2019-06-20T17:22:51.466Z,1.20
2019-06-20T17:25:20.877Z,1.17
2019-06-20T17:27:50.240Z,1.20
2019-06-20T17:30:20.702Z,1.17
2019-06-20T17:32:50.065Z,1.30
2019-06-20T17:35:19.839Z,1.30
2019-06-20T17:37:49.294Z,1.03
2019-06-20T17:40:19.108Z,1.17
2019-06-20T17:42:48.448Z,1.30
2019-06-20T17:45:18.499Z,1.00
2019-06-20T17:47:47.898Z,1.20
2019-06-20T17:50:17.726Z,1.27
2019-06-20T17:52:47.045Z,1.33
2019-06-20T17:55:16.603Z,1.03
2019-06-20T17:57:46.060Z,1.10
2019-06-20T18:00:20.554Z,1.70
2019-06-20T18:02:49.998Z,1.70
2019-06-20T18:05:19.562Z,1.00
2019-06-20T18:07:48.903Z,1.13
2019-06-20T18:10:20.069Z,1.40
2019-06-20T18:12:49.521Z,1.30
2019-06-20T18:15:19.274Z,1.20
2019-06-20T18:17:48.625Z,1.40
2019-06-20T18:20:18.487Z,1.47
2019-06-20T18:22:47.865Z,1.03
2019-06-20T18:25:17.345Z,1.03
2019-06-20T18:27:46.666Z,1.20
2019-06-20T18:30:16.340Z,1.10
2019-06-20T18:32:45.694Z,1.30
2019-06-20T18:35:15.536Z,1.20
2019-06-20T18:37:44.854Z,1.40
2019-06-20T18:40:14.689Z,1.20
2019-06-20T18:42:44.062Z,1.10
2019-06-20T18:45:13.451Z,1.47
2019-06-20T18:47:42.831Z,1.43
2019-06-20T18:50:12.917Z,1.30
2019-06-20T18:52:51.711Z,1.37
2019-06-20T18:55:13.661Z,1.10
2019-06-20T18:57:42.982Z,1.30
2019-06-20T19:00:13.832Z,1.20
2019-06-20T19:02:43.327Z,1.13
2019-06-20T19:05:13.140Z,1.57
2019-06-20T19:07:42.522Z,1.30
2019-06-20T19:10:12.429Z,1.30
2019-06-20T19:12:41.821Z,1.17
2019-06-20T19:15:11.734Z,1.27
2019-06-20T19:17:41.191Z,1.37
2019-06-20T19:20:10.738Z,1.20
2019-06-20T19:22:40.199Z,1.20
2019-06-20T19:25:09.872Z,1.50
2019-06-20T19:27:46.342Z,1.40
2019-06-20T19:30:12.508Z,1.80
2019-06-20T19:32:41.975Z,1.50
2019-06-20T19:35:13.184Z,1.33
2019-06-20T19:37:42.501Z,1.50
2019-06-20T19:40:13.696Z,1.30
2019-06-20T19:42:43.211Z,1.27
2019-06-20T19:45:13.265Z,1.27
2019-06-20T19:47:43.018Z,1.50
2019-06-20T19:50:12.813Z,1.30
2019-06-20T19:52:42.262Z,1.60
2019-06-20T19:55:12.873Z,1.63
2019-06-20T19:57:42.373Z,1.33
2019-06-20T20:00:13.670Z,1.70
2019-06-20T20:02:43.262Z,1.50
2019-06-20T20:05:19.029Z,1.60
2019-06-20T20:07:44.098Z,1.50
2019-06-20T20:10:13.775Z,1.40
2019-06-20T20:12:43.277Z,1.20
2019-06-20T20:15:13.589Z,1.70
2019-06-20T20:17:42.910Z,1.50
2019-06-20T20:20:12.658Z,1.80
2019-06-20T20:22:41.983Z,1.90
2019-06-20T20:25:11.841Z,1.77
2019-06-20T20:27:41.210Z,1.67
2019-06-20T20:30:11.366Z,1.80
2019-06-20T20:32:40.987Z,1.70
2019-06-20T20:35:10.488Z,2.17
2019-06-20T20:37:39.806Z,1.80
2019-06-20T20:40:10.756Z,1.70
2019-06-20T20:42:40.284Z,1.63
2019-06-20T20:45:09.944Z,2.40
2019-06-20T20:47:39.377Z,2.07
2019-06-20T20:50:09.887Z,2.37
2019-06-20T20:52:39.210Z,2.13
2019-06-20T20:55:11.574Z,1.90
2019-06-20T20:57:40.954Z,1.87
2019-06-20T21:00:13.865Z,1.90
2019-06-20T21:02:43.306Z,2.20
2019-06-20T21:05:12.680Z,1.97
2019-06-20T21:07:42.056Z,2.30
2019-06-20T21:10:12.508Z,2.30
2019-06-20T21:12:41.843Z,1.90
2019-06-20T21:15:11.327Z,1.80
2019-06-20T21:17:40.822Z,2.20
2019-06-20T21:20:10.673Z,2.20
2019-06-20T21:22:40.006Z,2.40
2019-06-20T21:25:10.034Z,1.90
2019-06-20T21:27:39.353Z,2.43
2019-06-20T21:30:11.784Z,2.53
2019-06-20T21:32:41.088Z,2.03
2019-06-20T21:35:12.139Z,2.60
2019-06-20T21:37:41.460Z,2.27
2019-06-20T21:40:11.315Z,2.27
2019-06-20T21:42:40.813Z,2.20
2019-06-20T21:45:10.774Z,2.30
2019-06-20T21:47:40.255Z,2.13
2019-06-20T21:50:11.543Z,2.10
2019-06-20T21:52:40.849Z,1.90
2019-06-20T21:55:10.803Z,2.20
2019-06-20T21:57:40.241Z,2.23
2019-06-20T22:00:15.479Z,2.13
2019-06-20T22:02:46.502Z,2.10
2019-06-20T22:05:16.151Z,2.00
2019-06-20T22:07:45.638Z,2.70
2019-06-20T22:10:15.409Z,2.30
2019-06-20T22:12:44.711Z,2.20
2019-06-20T22:15:14.666Z,2.00
2019-06-20T22:17:44.097Z,2.50
2019-06-20T22:20:14.456Z,2.40
2019-06-20T22:22:43.845Z,2.57
2019-06-20T22:25:13.735Z,2.67
2019-06-20T22:27:43.044Z,2.13
2019-06-20T22:30:13.308Z,2.30
2019-06-20T22:32:43.954Z,2.40
2019-06-20T22:35:13.652Z,2.67
2019-06-20T22:37:42.966Z,2.50
2019-06-20T22:40:12.743Z,2.90
2019-06-20T22:42:42.054Z,2.43
2019-06-20T22:45:11.621Z,3.00
2019-06-20T22:47:40.966Z,2.60
2019-06-20T22:50:10.621Z,2.67
2019-06-20T22:52:39.926Z,2.80
2019-06-20T22:55:09.717Z,2.70
2019-06-20T22:57:39.102Z,2.30
2019-06-20T23:00:09.058Z,2.90
2019-06-20T23:02:38.945Z,3.20
2019-06-20T23:05:09.096Z,3.20
2019-06-20T23:07:38.431Z,3.30
2019-06-20T23:10:10.984Z,2.50
2019-06-20T23:12:39.164Z,2.73
2019-06-20T23:15:10.218Z,2.73
2019-06-20T23:17:39.693Z,2.47
2019-06-20T23:20:09.743Z,2.73
2019-06-20T23:22:39.324Z,2.60
2019-06-20T23:25:09.667Z,2.60
2019-06-20T23:27:39.045Z,2.40
2019-06-20T23:30:09.213Z,3.40
2019-06-20T23:32:38.611Z,2.93
2019-06-20T23:35:08.324Z,2.67
2019-06-20T23:37:37.656Z,2.73
2019-06-20T23:40:09.081Z,2.80
2019-06-20T23:42:38.625Z,2.90
2019-06-20T23:45:09.677Z,2.67
2019-06-20T23:47:38.997Z,3.00
2019-06-20T23:50:18.144Z,3.20
2019-06-20T23:52:57.945Z,2.97
2019-06-20T23:55:27.296Z,2.70
2019-06-20T23:57:56.609Z,3.00
